createdAt,value
2019-01-31T00:01:07.662Z,1.62
2019-01-31T00:02:17.341Z,1.66
2019-01-31T00:03:27.259Z,1.55
2019-01-31T00:04:37.180Z,1.58
2019-01-31T00:05:46.357Z,1.52
2019-01-31T00:06:56.035Z,1.6
2019-01-31T00:08:05.709Z,1.5
2019-01-31T00:09:15.138Z,1.47
2019-01-31T00:10:24.806Z,1.58
2019-01-31T00:11:33.972Z,1.55
2019-01-31T00:12:43.895Z,1.63
2019-01-31T00:13:53.570Z,1.65
2019-01-31T00:15:03.249Z,1.55
2019-01-31T00:16:12.941Z,1.52
2019-01-31T00:17:22.868Z,1.62
2019-01-31T00:18:32.289Z,1.58
2019-01-31T00:19:41.951Z,1.62
2019-01-31T00:20:51.620Z,1.58
2019-01-31T00:22:00.784Z,1.5
2019-01-31T00:23:10.205Z,1.44
2019-01-31T00:24:19.622Z,1.45
2019-01-31T00:25:29.548Z,1.41
2019-01-31T00:26:38.717Z,1.42
2019-01-31T00:27:48.389Z,1.37
2019-01-31T00:28:57.802Z,1.45
2019-01-31T00:30:07.467Z,1.42
2019-01-31T00:31:17.392Z,1.42
2019-01-31T00:32:26.816Z,1.45
2019-01-31T00:33:36.241Z,1.4
2019-01-31T00:34:45.909Z,1.4
2019-01-31T00:35:55.818Z,1.4
2019-01-31T00:37:05.735Z,1.26
2019-01-31T00:38:15.661Z,1.32
2019-01-31T00:39:24.835Z,1.32
2019-01-31T00:40:34.555Z,1.32
2019-01-31T00:41:44.224Z,1.27
2019-01-31T00:42:53.146Z,1.3
2019-01-31T00:44:03.063Z,1.36
2019-01-31T00:45:12.482Z,1.37
2019-01-31T00:46:21.907Z,1.41
2019-01-31T00:47:31.832Z,1.4
2019-01-31T00:48:41.495Z,1.32
2019-01-31T00:49:51.166Z,1.3
2019-01-31T00:51:00.582Z,1.3
2019-01-31T00:52:10.029Z,1.3
2019-01-31T00:53:19.696Z,1.23
2019-01-31T00:54:29.446Z,1.22
2019-01-31T00:55:38.879Z,1.22
2019-01-31T00:56:48.296Z,1.18
2019-01-31T00:57:57.470Z,1.3
2019-01-31T00:59:07.135Z,1.18
2019-01-31T01:00:16.813Z,1.16
2019-01-31T01:01:26.751Z,1.2
2019-01-31T01:02:36.440Z,1.18
2019-01-31T01:03:46.412Z,1.15
2019-01-31T01:04:56.082Z,1.15
2019-01-31T01:06:05.999Z,1.15
2019-01-31T01:07:15.662Z,1.02
2019-01-31T01:08:25.331Z,1.11
2019-01-31T01:09:34.745Z,1.09
2019-01-31T01:10:44.410Z,1.09
2019-01-31T01:11:54.331Z,1.15
2019-01-31T01:13:04.008Z,1.16
2019-01-31T01:14:13.928Z,1.23
2019-01-31T01:15:23.348Z,1.15
2019-01-31T01:16:33.268Z,1.09
2019-01-31T01:17:43.220Z,1.08
2019-01-31T01:18:53.139Z,1.09
2019-01-31T01:20:03.071Z,1.11
2019-01-31T01:21:12.242Z,1.02
2019-01-31T01:22:21.910Z,1.08
2019-01-31T01:23:31.331Z,1.11
2019-01-31T01:24:41.246Z,1.05
2019-01-31T01:25:51.166Z,1.04
2019-01-31T01:27:01.088Z,1.08
2019-01-31T01:28:10.254Z,1.06
2019-01-31T01:29:19.931Z,1.04
2019-01-31T01:30:29.848Z,1.09
2019-01-31T01:31:39.272Z,1.11
2019-01-31T01:32:48.942Z,1.08
2019-01-31T01:33:58.861Z,1.12
2019-01-31T01:35:08.793Z,1.09
2019-01-31T01:36:18.456Z,1.15
2019-01-31T01:37:27.881Z,1.2
2019-01-31T01:38:37.326Z,1.11
2019-01-31T01:39:47.248Z,1.14
2019-01-31T01:40:56.915Z,1.23
2019-01-31T01:42:06.580Z,1.23
2019-01-31T01:43:16.500Z,1.12
2019-01-31T01:44:26.280Z,1.16
2019-01-31T01:45:36.190Z,1.16
2019-01-31T01:46:45.868Z,1.18
2019-01-31T01:47:55.785Z,1.18
2019-01-31T01:49:05.699Z,1.15
2019-01-31T01:50:15.120Z,1.2
2019-01-31T01:51:24.410Z,1.29
2019-01-31T01:52:34.324Z,1.22
2019-01-31T01:53:43.745Z,1.3
2019-01-31T01:54:53.164Z,1.23
2019-01-31T01:56:02.372Z,1.24
2019-01-31T01:57:12.290Z,1.24
2019-01-31T01:58:21.710Z,1.16
2019-01-31T01:59:31.388Z,1.18
2019-01-31T02:00:41.069Z,1.2
2019-01-31T02:01:50.991Z,1.23
2019-01-31T02:03:00.670Z,1.14
2019-01-31T02:04:10.093Z,1.14
2019-01-31T02:05:19.761Z,1.18
2019-01-31T02:06:29.184Z,1.27
2019-01-31T02:07:38.475Z,1.15
2019-01-31T02:08:48.392Z,1.27
2019-01-31T02:09:58.063Z,1.26
2019-01-31T02:11:07.905Z,1.22
2019-01-31T02:12:17.590Z,1.23
2019-01-31T02:13:27.516Z,1.15
2019-01-31T02:14:37.188Z,1.15
2019-01-31T02:15:46.862Z,1.18
2019-01-31T02:16:56.463Z,1.23
2019-01-31T02:18:06.136Z,1.32
2019-01-31T02:19:15.554Z,1.4
2019-01-31T02:20:25.215Z,1.34
2019-01-31T02:21:35.150Z,1.4
2019-01-31T02:22:45.070Z,1.33
2019-01-31T02:23:54.501Z,1.24
2019-01-31T02:25:03.916Z,1.23
2019-01-31T02:26:13.592Z,1.26
2019-01-31T02:27:23.020Z,1.27
2019-01-31T02:28:32.439Z,1.3
2019-01-31T02:29:42.107Z,1.3
2019-01-31T02:30:51.280Z,1.27
2019-01-31T02:32:01.192Z,1.26
2019-01-31T02:33:10.869Z,1.23
2019-01-31T02:34:20.158Z,1.3
2019-01-31T02:35:30.082Z,1.27
2019-01-31T02:36:40.019Z,1.26
2019-01-31T02:37:49.695Z,1.27
2019-01-31T02:38:59.151Z,1.24
2019-01-31T02:40:08.827Z,1.22
2019-01-31T02:41:18.249Z,1.27
2019-01-31T02:42:27.552Z,1.23
2019-01-31T02:43:37.477Z,1.18
2019-01-31T02:44:47.165Z,1.24
2019-01-31T02:45:57.096Z,1.29
2019-01-31T02:47:07.031Z,1.24
2019-01-31T02:48:16.709Z,1.26
2019-01-31T02:49:26.634Z,1.32
2019-01-31T02:50:36.564Z,1.27
2019-01-31T02:51:46.500Z,1.23
2019-01-31T02:52:56.176Z,1.2
2019-01-31T02:54:06.093Z,1.15
2019-01-31T02:55:16.022Z,1.14
2019-01-31T02:56:28.421Z,1.12
2019-01-31T02:57:38.122Z,1.06
2019-01-31T02:58:47.802Z,1.18
2019-01-31T02:59:57.736Z,1.14
2019-01-31T03:01:07.426Z,1.15
2019-01-31T03:02:17.113Z,1.18
2019-01-31T03:03:26.786Z,1.14
2019-01-31T03:04:36.211Z,1.15
2019-01-31T03:05:46.149Z,1.09
2019-01-31T03:06:56.100Z,1.08
2019-01-31T03:08:05.541Z,1.11
2019-01-31T03:09:14.967Z,1.15
2019-01-31T03:10:24.646Z,1.11
2019-01-31T03:11:34.081Z,1.18
2019-01-31T03:12:43.818Z,1.29
2019-01-31T03:13:52.986Z,1.23
2019-01-31T03:15:14.600Z,1.26
2019-01-31T03:16:24.674Z,1.32
2019-01-31T03:17:34.342Z,1.26
2019-01-31T03:18:43.762Z,1.3
2019-01-31T03:19:53.458Z,1.36
2019-01-31T03:21:02.889Z,1.36
2019-01-31T03:22:12.326Z,1.26
2019-01-31T03:23:22.002Z,1.37
2019-01-31T03:24:31.925Z,1.37
2019-01-31T03:25:41.600Z,1.41
2019-01-31T03:26:51.268Z,1.34
2019-01-31T03:28:01.200Z,1.42
2019-01-31T03:29:10.906Z,1.34
2019-01-31T03:30:24.708Z,1.32
2019-01-31T03:31:34.576Z,1.33
2019-01-31T03:32:44.532Z,1.4
2019-01-31T03:33:54.230Z,1.37
2019-01-31T03:35:03.653Z,1.44
2019-01-31T03:36:13.602Z,1.48
2019-01-31T03:37:22.781Z,1.48
2019-01-31T03:38:32.459Z,1.52
2019-01-31T03:39:42.411Z,1.51
2019-01-31T03:40:51.827Z,1.59
2019-01-31T03:42:01.255Z,1.65
2019-01-31T03:43:11.178Z,1.69
2019-01-31T03:44:20.602Z,1.7
2019-01-31T03:45:30.525Z,1.63
2019-01-31T03:46:39.698Z,1.63
2019-01-31T03:47:49.420Z,1.73
2019-01-31T03:48:59.341Z,1.65
2019-01-31T03:50:11.718Z,1.52
2019-01-31T03:51:21.424Z,1.54
2019-01-31T03:52:31.102Z,1.52
2019-01-31T03:53:40.572Z,1.45
2019-01-31T03:54:49.999Z,1.47
2019-01-31T03:55:59.670Z,1.48
2019-01-31T03:57:09.352Z,1.5
2019-01-31T03:58:19.289Z,1.58
2019-01-31T03:59:29.259Z,1.55
2019-01-31T04:00:38.953Z,1.55
2019-01-31T04:01:48.919Z,1.52
2019-01-31T04:02:58.962Z,1.6
2019-01-31T04:04:08.644Z,1.6
2019-01-31T04:05:18.582Z,1.5
2019-01-31T04:06:28.508Z,1.47
2019-01-31T04:07:37.947Z,1.52
2019-01-31T04:08:47.761Z,1.59
2019-01-31T04:09:57.685Z,1.5
2019-01-31T04:11:06.934Z,1.52
2019-01-31T04:12:16.124Z,1.55
2019-01-31T04:13:25.822Z,1.55
2019-01-31T04:14:35.248Z,1.6
2019-01-31T04:15:45.174Z,1.55
2019-01-31T04:16:55.093Z,1.59
2019-01-31T04:18:04.825Z,1.63
2019-01-31T04:19:14.746Z,1.68
2019-01-31T04:20:24.488Z,1.7
2019-01-31T04:21:34.171Z,1.63
2019-01-31T04:22:43.840Z,1.73
2019-01-31T04:23:53.271Z,1.77
2019-01-31T04:25:03.205Z,1.8
2019-01-31T04:26:13.137Z,1.73
2019-01-31T04:27:22.812Z,1.76
2019-01-31T04:28:35.526Z,1.65
2019-01-31T04:29:44.705Z,1.59
2019-01-31T04:30:54.776Z,1.52
2019-01-31T04:32:04.199Z,1.48
2019-01-31T04:33:13.899Z,1.54
2019-01-31T04:34:23.072Z,1.5
2019-01-31T04:35:33.029Z,1.5
2019-01-31T04:36:43.058Z,1.63
2019-01-31T04:37:52.744Z,1.62
2019-01-31T04:39:02.421Z,1.58
2019-01-31T04:40:11.952Z,1.7
2019-01-31T04:41:21.621Z,1.69
2019-01-31T04:42:31.294Z,1.52
2019-01-31T04:43:40.991Z,1.52
2019-01-31T04:44:50.677Z,1.6
2019-01-31T04:46:00.607Z,1.55
2019-01-31T04:47:10.594Z,1.69
2019-01-31T04:48:20.274Z,1.62
2019-01-31T04:49:29.959Z,1.66
2019-01-31T04:50:39.631Z,1.65
2019-01-31T04:51:48.800Z,1.59
2019-01-31T04:52:58.726Z,1.7
2019-01-31T04:54:08.400Z,1.66
2019-01-31T04:55:18.140Z,1.55
2019-01-31T04:56:28.097Z,1.52
2019-01-31T04:57:37.281Z,1.58
2019-01-31T04:58:46.951Z,1.68
2019-01-31T04:59:56.896Z,1.55
2019-01-31T05:01:06.579Z,1.72
2019-01-31T05:02:16.517Z,1.66
2019-01-31T05:03:25.691Z,1.68
2019-01-31T05:04:34.862Z,1.76
2019-01-31T05:05:44.799Z,1.69
2019-01-31T05:06:54.480Z,1.7
2019-01-31T05:08:04.157Z,1.63
2019-01-31T05:09:13.880Z,1.66
2019-01-31T05:10:23.556Z,1.66
2019-01-31T05:11:33.229Z,1.66
2019-01-31T05:12:43.033Z,1.7
2019-01-31T05:13:52.711Z,1.69
2019-01-31T05:15:02.384Z,1.73
2019-01-31T05:16:12.064Z,1.8
2019-01-31T05:17:21.981Z,1.79
2019-01-31T05:18:31.795Z,1.8
2019-01-31T05:19:41.714Z,1.9
2019-01-31T05:20:51.387Z,1.91
2019-01-31T05:22:00.974Z,1.87
2019-01-31T05:23:10.666Z,1.86
2019-01-31T05:24:20.603Z,1.9
2019-01-31T05:25:30.042Z,1.83
2019-01-31T05:26:39.732Z,1.83
2019-01-31T05:27:49.411Z,1.81
2019-01-31T05:28:59.334Z,1.81
2019-01-31T05:30:09.266Z,1.84
2019-01-31T05:31:19.191Z,1.88
2019-01-31T05:32:28.904Z,1.98
2019-01-31T05:33:38.830Z,1.9
2019-01-31T05:34:48.656Z,1.95
2019-01-31T05:35:58.322Z,1.86
2019-01-31T05:37:08.243Z,1.9
2019-01-31T05:38:19.953Z,1.84
2019-01-31T05:39:29.883Z,1.91
2019-01-31T05:40:39.819Z,1.95
2019-01-31T05:42:00.780Z,1.86
2019-01-31T05:43:10.458Z,1.83
2019-01-31T05:44:19.880Z,1.8
2019-01-31T05:45:29.310Z,1.87
2019-01-31T05:46:38.995Z,1.87
2019-01-31T05:47:48.415Z,1.93
2019-01-31T05:48:58.348Z,1.93
2019-01-31T05:50:08.271Z,1.88
2019-01-31T05:51:18.200Z,1.91
2019-01-31T05:52:27.868Z,1.83
2019-01-31T05:53:37.804Z,1.84
2019-01-31T05:54:47.737Z,2.02
2019-01-31T05:55:57.166Z,1.95
2019-01-31T05:57:06.946Z,2.05
2019-01-31T05:58:16.626Z,1.91
2019-01-31T05:59:26.294Z,1.8
2019-01-31T06:00:36.225Z,2.1
2019-01-31T06:01:46.043Z,2.02
2019-01-31T06:02:55.786Z,1.98
2019-01-31T06:04:05.498Z,1.83
2019-01-31T06:05:15.197Z,2.05
2019-01-31T06:06:24.875Z,1.93
2019-01-31T06:07:34.057Z,1.98
2019-01-31T06:08:43.479Z,1.88
2019-01-31T06:09:53.226Z,2
2019-01-31T06:11:12.406Z,1.93
2019-01-31T06:12:22.338Z,1.98
2019-01-31T06:13:31.419Z,1.93
2019-01-31T06:14:40.834Z,1.91
2019-01-31T06:15:50.760Z,1.9
2019-01-31T06:17:00.696Z,1.91
2019-01-31T06:18:10.622Z,1.86
2019-01-31T06:19:20.451Z,1.95
2019-01-31T06:20:30.392Z,1.99
2019-01-31T06:21:40.118Z,1.9
2019-01-31T06:22:49.905Z,1.81
2019-01-31T06:23:59.611Z,1.91
2019-01-31T06:25:08.845Z,1.83
2019-01-31T06:26:18.280Z,1.91
2019-01-31T06:27:27.953Z,1.87
2019-01-31T06:28:37.747Z,1.87
2019-01-31T06:29:47.419Z,1.95
2019-01-31T06:30:57.213Z,1.77
2019-01-31T06:32:06.900Z,1.83
2019-01-31T06:33:16.582Z,1.86
2019-01-31T06:34:26.527Z,1.98
2019-01-31T06:35:36.470Z,1.88
2019-01-31T06:36:46.144Z,1.9
2019-01-31T06:37:55.566Z,1.93
2019-01-31T06:39:04.995Z,2
2019-01-31T06:40:14.665Z,1.95
2019-01-31T06:41:24.330Z,1.95
2019-01-31T06:42:33.748Z,2.03
2019-01-31T06:43:43.427Z,1.95
2019-01-31T06:44:53.125Z,2.03
2019-01-31T06:46:02.809Z,1.86
2019-01-31T06:47:12.473Z,1.87
2019-01-31T06:48:21.913Z,1.91
2019-01-31T06:49:31.831Z,1.99
2019-01-31T06:50:41.749Z,1.91
2019-01-31T06:51:51.674Z,1.91
2019-01-31T06:53:02.802Z,1.91
2019-01-31T06:54:12.485Z,1.88
2019-01-31T06:55:22.159Z,2.02
2019-01-31T06:56:31.328Z,2.02
2019-01-31T06:57:41.247Z,1.93
2019-01-31T06:58:50.921Z,1.8
2019-01-31T07:00:00.623Z,1.84
2019-01-31T07:01:10.294Z,1.98
2019-01-31T07:02:19.720Z,1.86
2019-01-31T07:03:29.656Z,1.84
2019-01-31T07:04:39.080Z,1.93
2019-01-31T07:05:48.749Z,1.93
2019-01-31T07:06:58.183Z,1.93
2019-01-31T07:08:09.630Z,1.9
2019-01-31T07:09:19.302Z,1.9
2019-01-31T07:10:29.263Z,1.95
2019-01-31T07:11:39.742Z,1.93
2019-01-31T07:12:49.672Z,2.05
2019-01-31T07:13:59.096Z,1.98
2019-01-31T07:15:08.774Z,1.9
2019-01-31T07:16:18.446Z,1.95
2019-01-31T07:17:28.359Z,1.8
2019-01-31T07:18:38.026Z,1.88
2019-01-31T07:19:47.692Z,1.95
2019-01-31T07:20:57.366Z,1.83
2019-01-31T07:22:07.058Z,1.93
2019-01-31T07:23:16.781Z,1.84
2019-01-31T07:24:26.707Z,2.03
2019-01-31T07:25:36.379Z,1.93
2019-01-31T07:26:46.042Z,2.09
2019-01-31T07:27:55.840Z,1.86
2019-01-31T07:29:05.533Z,1.9
2019-01-31T07:30:14.701Z,1.79
2019-01-31T07:31:24.619Z,1.91
2019-01-31T07:32:34.288Z,1.86
2019-01-31T07:33:43.746Z,1.98
2019-01-31T07:34:53.684Z,1.93
2019-01-31T07:36:03.633Z,1.86
2019-01-31T07:37:13.312Z,1.76
2019-01-31T07:38:23.361Z,1.88
2019-01-31T07:39:33.037Z,1.87
2019-01-31T07:40:42.709Z,1.8
2019-01-31T07:41:52.629Z,1.93
2019-01-31T07:43:02.552Z,1.83
2019-01-31T07:44:12.336Z,1.9
2019-01-31T07:45:22.339Z,1.81
2019-01-31T07:46:32.020Z,1.83
2019-01-31T07:47:41.442Z,1.87
2019-01-31T07:48:51.114Z,1.84
2019-01-31T07:50:00.280Z,1.95
2019-01-31T07:51:09.447Z,1.76
2019-01-31T07:52:18.868Z,1.9
2019-01-31T07:53:28.533Z,1.87
2019-01-31T07:54:38.208Z,2.02
2019-01-31T07:55:47.386Z,1.91
2019-01-31T07:56:57.312Z,1.86
2019-01-31T07:58:07.234Z,1.87
2019-01-31T07:59:17.005Z,1.88
2019-01-31T08:00:27.043Z,1.95
2019-01-31T08:01:36.712Z,2.1
2019-01-31T08:02:48.552Z,1.93
2019-01-31T08:04:07.417Z,1.95
2019-01-31T08:05:17.338Z,2.02
2019-01-31T08:06:27.013Z,2.06
2019-01-31T08:07:36.438Z,2.09
2019-01-31T08:08:46.105Z,2.05
2019-01-31T08:09:58.506Z,2.09
2019-01-31T08:11:08.428Z,2.06
2019-01-31T08:12:18.123Z,2
2019-01-31T08:13:27.805Z,1.99
2019-01-31T08:14:36.984Z,2.03
2019-01-31T08:15:47.014Z,1.93
2019-01-31T08:16:56.945Z,2.05
2019-01-31T08:18:06.377Z,2
2019-01-31T08:19:18.091Z,2.05
2019-01-31T08:20:28.019Z,2.05
2019-01-31T08:21:37.693Z,2.05
2019-01-31T08:22:48.812Z,2
2019-01-31T08:23:58.735Z,1.91
2019-01-31T08:25:08.416Z,2.02
2019-01-31T08:26:18.338Z,1.99
2019-01-31T08:27:28.023Z,1.99
2019-01-31T08:28:37.696Z,2.06
2019-01-31T08:29:47.117Z,2.06
2019-01-31T08:30:56.544Z,2
2019-01-31T08:32:06.468Z,1.93
2019-01-31T08:33:15.887Z,2.06
2019-01-31T08:34:25.815Z,2
2019-01-31T08:35:35.594Z,2.02
2019-01-31T08:36:45.046Z,1.93
2019-01-31T08:37:54.722Z,1.93
2019-01-31T08:39:04.399Z,2.02
2019-01-31T08:40:14.326Z,2.06
2019-01-31T08:41:24.254Z,2.02
2019-01-31T08:42:34.186Z,2.03
2019-01-31T08:43:46.377Z,2.05
2019-01-31T08:44:56.098Z,2.07
2019-01-31T08:46:05.775Z,2.02
2019-01-31T08:47:15.205Z,1.99
2019-01-31T08:48:24.759Z,1.91
2019-01-31T08:49:34.336Z,1.93
2019-01-31T08:50:44.260Z,2.02
2019-01-31T08:51:53.932Z,2.12
2019-01-31T08:53:03.356Z,2.12
2019-01-31T08:54:12.528Z,2.12
2019-01-31T08:55:21.958Z,2.12
2019-01-31T08:56:31.639Z,2.1
2019-01-31T08:57:41.324Z,2.12
2019-01-31T08:58:52.472Z,2.1
2019-01-31T09:00:01.901Z,2.16
2019-01-31T09:01:11.833Z,2.21
2019-01-31T09:02:21.777Z,2.06
2019-01-31T09:03:31.450Z,2.2
2019-01-31T09:04:41.128Z,2.14
2019-01-31T09:05:51.046Z,2.18
2019-01-31T09:07:00.721Z,2.23
2019-01-31T09:08:09.900Z,2.31
2019-01-31T09:09:19.579Z,2.27
2019-01-31T09:10:28.505Z,2.31
2019-01-31T09:11:37.929Z,2.27
2019-01-31T09:12:47.627Z,2.3
2019-01-31T09:13:57.300Z,2.28
2019-01-31T09:15:07.249Z,2.27
2019-01-31T09:16:16.684Z,2.38
2019-01-31T09:17:25.861Z,2.36
2019-01-31T09:18:35.545Z,2.34
2019-01-31T09:19:45.221Z,2.3
2019-01-31T09:20:55.280Z,2.34
2019-01-31T09:22:04.996Z,2.38
2019-01-31T09:23:14.421Z,2.41
2019-01-31T09:24:24.135Z,2.41
2019-01-31T09:25:33.817Z,2.39
2019-01-31T09:26:43.494Z,2.34
2019-01-31T09:27:52.942Z,2.43
2019-01-31T09:29:02.363Z,2.41
2019-01-31T09:30:12.047Z,2.39
2019-01-31T09:31:24.478Z,2.42
2019-01-31T09:32:34.400Z,2.42
2019-01-31T09:33:44.331Z,2.48
2019-01-31T09:34:53.782Z,2.49
2019-01-31T09:36:03.706Z,2.49
2019-01-31T09:37:13.130Z,2.36
2019-01-31T09:38:22.809Z,2.31
2019-01-31T09:39:32.486Z,2.34
2019-01-31T09:40:42.162Z,2.31
2019-01-31T09:41:51.587Z,2.28
2019-01-31T09:43:01.012Z,2.28
2019-01-31T09:44:10.434Z,2.25
2019-01-31T09:45:20.109Z,2.24
2019-01-31T09:46:29.532Z,2.28
2019-01-31T09:47:39.456Z,2.25
2019-01-31T09:48:49.266Z,2.23
2019-01-31T09:49:58.694Z,2.31
2019-01-31T09:51:08.373Z,2.27
2019-01-31T09:52:18.056Z,2.27
2019-01-31T09:53:27.978Z,2.31
2019-01-31T09:54:37.699Z,2.25
2019-01-31T09:55:47.127Z,2.39
2019-01-31T09:56:56.822Z,2.41
2019-01-31T09:58:06.497Z,2.46
2019-01-31T09:59:16.170Z,2.56
2019-01-31T10:00:32.630Z,2.54
2019-01-31T10:01:42.304Z,2.45
2019-01-31T10:02:51.257Z,2.45
2019-01-31T10:04:00.432Z,2.48
2019-01-31T10:05:09.859Z,2.49
2019-01-31T10:06:19.786Z,2.54
2019-01-31T10:07:29.467Z,2.54
2019-01-31T10:08:38.641Z,2.52
2019-01-31T10:09:48.565Z,2.48
2019-01-31T10:10:58.274Z,2.48
2019-01-31T10:12:08.180Z,2.53
2019-01-31T10:13:17.957Z,2.54
2019-01-31T10:14:28.240Z,2.46
2019-01-31T10:15:38.058Z,2.42
2019-01-31T10:16:49.524Z,2.53
2019-01-31T10:17:59.094Z,2.56
2019-01-31T10:19:09.130Z,2.48
2019-01-31T10:20:20.885Z,2.49
2019-01-31T10:21:31.075Z,2.56
2019-01-31T10:22:41.358Z,2.49
2019-01-31T10:23:51.439Z,2.54
2019-01-31T10:25:01.663Z,2.54
2019-01-31T10:26:11.211Z,2.59
2019-01-31T10:27:21.140Z,2.64
2019-01-31T10:28:30.817Z,2.56
2019-01-31T10:29:40.750Z,2.59
2019-01-31T10:30:50.425Z,2.45
2019-01-31T10:31:59.608Z,2.45
2019-01-31T10:33:09.289Z,2.52
2019-01-31T10:34:18.462Z,2.46
2019-01-31T10:35:30.043Z,2.53
2019-01-31T10:36:39.724Z,2.48
2019-01-31T10:37:48.650Z,2.54
2019-01-31T10:38:59.318Z,2.45
2019-01-31T10:40:08.990Z,2.52
2019-01-31T10:41:18.665Z,2.49
2019-01-31T10:42:27.929Z,2.31
2019-01-31T10:43:37.109Z,2.35
2019-01-31T10:44:47.107Z,2.27
2019-01-31T10:45:57.052Z,2.28
2019-01-31T10:47:06.983Z,2.24
2019-01-31T10:48:16.160Z,2.31
2019-01-31T10:49:25.581Z,2.38
2019-01-31T10:50:34.761Z,2.36
2019-01-31T10:51:44.430Z,2.41
2019-01-31T10:52:54.356Z,2.36
2019-01-31T10:54:03.805Z,2.41
2019-01-31T10:55:13.235Z,2.36
2019-01-31T10:56:22.906Z,2.36
2019-01-31T10:57:32.579Z,2.34
2019-01-31T10:58:42.505Z,2.43
2019-01-31T10:59:51.685Z,2.49
2019-01-31T11:01:01.360Z,2.52
2019-01-31T11:02:11.284Z,2.59
2019-01-31T11:03:21.214Z,2.6
2019-01-31T11:04:30.645Z,2.53
2019-01-31T11:05:40.328Z,2.39
2019-01-31T11:06:49.999Z,2.31
2019-01-31T11:08:02.119Z,2.35
2019-01-31T11:09:12.045Z,2.23
2019-01-31T11:10:21.226Z,2.31
2019-01-31T11:11:30.714Z,2.3
2019-01-31T11:12:39.402Z,2.36
2019-01-31T11:13:48.822Z,2.35
2019-01-31T11:14:58.500Z,2.31
2019-01-31T11:16:08.184Z,2.34
2019-01-31T11:17:17.860Z,2.41
2019-01-31T11:18:27.539Z,2.36
2019-01-31T11:19:37.507Z,2.38
2019-01-31T11:20:47.176Z,2.53
2019-01-31T11:21:57.105Z,2.49
2019-01-31T11:23:06.781Z,2.52
2019-01-31T11:24:16.700Z,2.61
2019-01-31T11:25:26.374Z,2.43
2019-01-31T11:26:36.044Z,2.36
2019-01-31T11:27:45.515Z,2.34
2019-01-31T11:28:54.951Z,2.3
2019-01-31T11:30:05.109Z,2.27
2019-01-31T11:31:14.911Z,2.39
2019-01-31T11:32:24.337Z,2.39
2019-01-31T11:33:34.017Z,2.45
2019-01-31T11:34:43.691Z,2.41
2019-01-31T11:35:53.374Z,2.48
2019-01-31T11:37:03.124Z,2.52
2019-01-31T11:38:13.055Z,2.42
2019-01-31T11:39:22.600Z,2.41
2019-01-31T11:40:32.556Z,2.43
2019-01-31T11:41:42.486Z,2.45
2019-01-31T11:42:52.405Z,2.54
2019-01-31T11:44:02.079Z,2.59
2019-01-31T11:45:11.846Z,2.61
2019-01-31T11:46:21.523Z,2.59
2019-01-31T11:47:31.193Z,2.57
2019-01-31T11:48:40.626Z,2.59
2019-01-31T11:49:52.445Z,2.54
2019-01-31T11:51:02.546Z,2.61
2019-01-31T11:52:12.138Z,2.66
2019-01-31T11:53:21.565Z,2.77
2019-01-31T11:54:31.243Z,2.79
2019-01-31T11:55:41.170Z,2.78
2019-01-31T11:56:50.604Z,2.75
2019-01-31T11:58:10.603Z,2.79
2019-01-31T11:59:20.291Z,2.78
2019-01-31T12:00:29.986Z,2.79
2019-01-31T12:01:39.913Z,2.92
2019-01-31T12:02:59.871Z,2.93
2019-01-31T12:04:09.791Z,3.02
2019-01-31T12:05:19.460Z,3
2019-01-31T12:06:29.147Z,3.03
2019-01-31T12:07:41.157Z,3.05
2019-01-31T12:08:50.329Z,3.11
2019-01-31T12:10:00.430Z,3.17
2019-01-31T12:11:10.352Z,3.05
2019-01-31T12:12:19.770Z,3.05
2019-01-31T12:13:29.194Z,3.08
2019-01-31T12:14:38.631Z,3.1
2019-01-31T12:15:48.067Z,3.03
2019-01-31T12:16:57.983Z,3.1
2019-01-31T12:18:07.411Z,3.11
2019-01-31T12:19:17.438Z,3.03
2019-01-31T12:20:26.892Z,3.11
2019-01-31T12:21:36.326Z,3.2
2019-01-31T12:22:45.512Z,3.14
2019-01-31T12:23:55.434Z,3.18
2019-01-31T12:25:05.143Z,3.2
2019-01-31T12:26:16.500Z,3.28
2019-01-31T12:27:26.189Z,3.31
2019-01-31T12:28:35.868Z,3.35
2019-01-31T12:29:45.816Z,3.47
2019-01-31T12:30:55.497Z,3.5
2019-01-31T12:32:04.784Z,3.6
2019-01-31T12:33:14.457Z,3.48
2019-01-31T12:34:24.131Z,3.5
2019-01-31T12:35:33.566Z,3.52
2019-01-31T12:36:43.264Z,3.54
2019-01-31T12:37:53.295Z,3.54
2019-01-31T12:39:02.716Z,3.5
2019-01-31T12:40:12.653Z,3.54
2019-01-31T12:41:22.329Z,3.52
2019-01-31T12:42:32.258Z,3.54
2019-01-31T12:43:41.442Z,3.48
2019-01-31T12:44:50.616Z,3.45
2019-01-31T12:46:00.291Z,3.5
2019-01-31T12:47:09.962Z,3.51
2019-01-31T12:48:19.395Z,3.45
2019-01-31T12:49:29.079Z,3.47
2019-01-31T12:50:39.005Z,3.54
2019-01-31T12:51:48.432Z,3.51
2019-01-31T12:52:57.856Z,3.52
2019-01-31T12:54:07.290Z,3.5
2019-01-31T12:55:16.463Z,3.43
2019-01-31T12:56:26.143Z,3.54
2019-01-31T12:57:35.321Z,3.58
2019-01-31T12:58:45.249Z,3.69
2019-01-31T12:59:54.923Z,3.62
2019-01-31T13:01:04.600Z,3.76
2019-01-31T13:02:14.531Z,3.76
2019-01-31T13:03:23.708Z,3.72
2019-01-31T13:04:33.448Z,3.9
2019-01-31T13:05:43.136Z,3.76
2019-01-31T13:06:52.918Z,3.8
2019-01-31T13:08:02.342Z,3.8
2019-01-31T13:09:11.523Z,3.88
2019-01-31T13:10:21.223Z,3.78
2019-01-31T13:11:30.669Z,3.8
2019-01-31T13:12:50.953Z,3.91
2019-01-31T13:14:00.385Z,3.94
2019-01-31T13:15:10.056Z,4.06
2019-01-31T13:16:19.735Z,4.05
2019-01-31T13:17:29.413Z,4.02
2019-01-31T13:18:39.083Z,4.06
2019-01-31T13:19:48.760Z,4
2019-01-31T13:20:58.448Z,3.97
2019-01-31T13:22:07.882Z,3.97
2019-01-31T13:23:17.556Z,3.96
2019-01-31T13:24:27.236Z,4.02
2019-01-31T13:25:37.169Z,4.05
2019-01-31T13:26:47.112Z,4.12
2019-01-31T13:27:56.540Z,4.14
2019-01-31T13:29:06.468Z,4.22
2019-01-31T13:30:16.401Z,4.22
2019-01-31T13:31:26.451Z,4.23
2019-01-31T13:32:36.148Z,4.2
2019-01-31T13:33:49.019Z,4.26
2019-01-31T13:34:58.736Z,4.08
2019-01-31T13:36:08.413Z,4.27
2019-01-31T13:37:18.349Z,4.24
2019-01-31T13:38:28.283Z,4.33
2019-01-31T13:39:37.969Z,4.41
2019-01-31T13:40:47.977Z,4.42
2019-01-31T13:41:57.657Z,4.44
2019-01-31T13:43:07.342Z,4.45
2019-01-31T13:44:16.518Z,4.51
2019-01-31T13:45:25.953Z,4.54
2019-01-31T13:46:35.398Z,4.48
2019-01-31T13:47:45.319Z,4.59
2019-01-31T13:48:55.248Z,4.52
2019-01-31T13:50:04.973Z,4.54
2019-01-31T13:51:14.656Z,4.6
2019-01-31T13:52:24.341Z,4.52
2019-01-31T13:53:34.272Z,4.54
2019-01-31T13:54:44.199Z,4.45
2019-01-31T13:55:53.621Z,4.48
2019-01-31T13:57:03.556Z,4.6
2019-01-31T13:58:14.884Z,4.52
2019-01-31T13:59:24.075Z,4.42
2019-01-31T14:00:33.522Z,4.47
2019-01-31T14:01:43.451Z,4.45
2019-01-31T14:02:53.384Z,4.6
2019-01-31T14:04:02.577Z,4.63
2019-01-31T14:05:12.273Z,4.77
2019-01-31T14:06:21.451Z,4.75
2019-01-31T14:07:32.529Z,4.91
2019-01-31T14:08:42.460Z,4.97
2019-01-31T14:09:52.500Z,4.96
2019-01-31T14:11:02.181Z,4.92
2019-01-31T14:12:11.861Z,5
2019-01-31T14:13:21.293Z,4.92
2019-01-31T14:14:30.724Z,5
2019-01-31T14:15:40.424Z,5.07
2019-01-31T14:16:52.544Z,5.27
2019-01-31T14:18:02.471Z,5.33
2019-01-31T14:19:11.902Z,5.38
2019-01-31T14:20:21.582Z,5.53
2019-01-31T14:21:30.778Z,5.6
2019-01-31T14:22:47.856Z,5.68
2019-01-31T14:23:57.595Z,5.67
2019-01-31T14:25:07.289Z,5.75
2019-01-31T14:26:16.509Z,5.56
2019-01-31T14:27:26.192Z,5.63
2019-01-31T14:28:35.627Z,5.79
2019-01-31T14:29:45.052Z,5.78
2019-01-31T14:30:54.994Z,5.76
2019-01-31T14:32:04.917Z,5.82
2019-01-31T14:33:14.594Z,5.9
2019-01-31T14:34:24.520Z,6.12
2019-01-31T14:35:34.200Z,6.17
2019-01-31T14:36:44.144Z,6.12
2019-01-31T14:37:54.074Z,6.33
2019-01-31T14:39:06.289Z,6.33
2019-01-31T14:40:16.217Z,6.36
2019-01-31T14:41:25.921Z,6.37
2019-01-31T14:42:35.108Z,6.46
2019-01-31T14:43:46.029Z,6.38
2019-01-31T14:44:55.839Z,6.22
2019-01-31T14:46:05.842Z,6.22
2019-01-31T14:47:15.042Z,6.14
2019-01-31T14:48:24.730Z,6.22
2019-01-31T14:49:34.234Z,6.11
2019-01-31T14:50:43.665Z,5.97
2019-01-31T14:51:53.343Z,5.81
2019-01-31T14:53:03.281Z,5.9
2019-01-31T14:54:12.985Z,5.97
2019-01-31T14:55:23.044Z,6.04
2019-01-31T14:56:32.476Z,6.04
2019-01-31T14:57:41.920Z,5.99
2019-01-31T14:58:51.615Z,5.75
2019-01-31T15:00:01.615Z,5.79
2019-01-31T15:01:11.298Z,5.72
2019-01-31T15:02:20.997Z,5.64
2019-01-31T15:03:30.683Z,5.67
2019-01-31T15:04:40.445Z,5.61
2019-01-31T15:05:50.129Z,5.65
2019-01-31T15:06:59.565Z,5.76
2019-01-31T15:08:09.247Z,5.67
2019-01-31T15:09:19.185Z,5.64
2019-01-31T15:10:28.661Z,5.54
2019-01-31T15:11:38.340Z,5.43
2019-01-31T15:12:48.020Z,5.49
2019-01-31T15:13:57.774Z,5.4
2019-01-31T15:15:07.457Z,5.35
2019-01-31T15:16:16.636Z,5.35
2019-01-31T15:17:26.070Z,5.15
2019-01-31T15:18:35.503Z,5.15
2019-01-31T15:20:51.890Z,5.25
2019-01-31T15:22:01.317Z,5.12
2019-01-31T15:23:10.744Z,5.04
2019-01-31T15:24:20.420Z,4.89
2019-01-31T15:25:29.848Z,5
2019-01-31T15:26:39.527Z,4.85
2019-01-31T15:27:49.462Z,4.73
2019-01-31T15:28:58.911Z,4.75
2019-01-31T15:30:11.480Z,4.67
2019-01-31T15:31:21.159Z,4.77
2019-01-31T15:32:32.915Z,4.67
2019-01-31T15:33:43.007Z,4.7
2019-01-31T15:34:52.692Z,4.67
2019-01-31T15:36:02.367Z,4.65